sensor_id;sensor_type;location;lat;lon;timestamp;P1;durP1;ratioP1;P2;durP2;ratioP2
67819;SDS011;54618;52.018;5.576;2024-02-21T00:00:50;14.43;;;5.20;;
67819;SDS011;54618;52.018;5.576;2024-02-21T00:03:16;8.68;;;4.22;;
67819;SDS011;54618;52.018;5.576;2024-02-21T00:05:42;12.05;;;4.15;;
67819;SDS011;54618;52.018;5.576;2024-02-21T00:08:07;11.85;;;4.82;;
67819;SDS011;54618;52.018;5.576;2024-02-21T00:10:33;9.05;;;3.58;;
67819;SDS011;54618;52.018;5.576;2024-02-21T00:13:00;11.05;;;4.25;;
67819;SDS011;54618;52.018;5.576;2024-02-21T00:15:25;9.45;;;3.85;;
67819;SDS011;54618;52.018;5.576;2024-02-21T00:17:54;9.57;;;3.72;;
67819;SDS011;54618;52.018;5.576;2024-02-21T00:20:20;10.40;;;3.83;;
67819;SDS011;54618;52.018;5.576;2024-02-21T00:22:46;10.20;;;3.88;;
67819;SDS011;54618;52.018;5.576;2024-02-21T00:25:11;12.73;;;4.03;;
67819;SDS011;54618;52.018;5.576;2024-02-21T00:27:37;9.00;;;4.72;;
67819;SDS011;54618;52.018;5.576;2024-02-21T00:30:04;11.43;;;4.63;;
67819;SDS011;54618;52.018;5.576;2024-02-21T00:32:31;12.18;;;4.50;;
67819;SDS011;54618;52.018;5.576;2024-02-21T00:34:59;12.85;;;4.88;;
67819;SDS011;54618;52.018;5.576;2024-02-21T00:37:24;15.93;;;4.95;;
67819;SDS011;54618;52.018;5.576;2024-02-21T00:39:50;10.43;;;5.13;;
67819;SDS011;54618;52.018;5.576;2024-02-21T00:42:15;14.45;;;4.95;;
67819;SDS011;54618;52.018;5.576;2024-02-21T00:44:41;11.48;;;4.60;;
67819;SDS011;54618;52.018;5.576;2024-02-21T00:47:07;9.55;;;3.72;;
67819;SDS011;54618;52.018;5.576;2024-02-21T00:49:32;13.63;;;4.95;;
67819;SDS011;54618;52.018;5.576;2024-02-21T00:52:01;13.13;;;4.63;;
67819;SDS011;54618;52.018;5.576;2024-02-21T00:54:26;13.23;;;4.60;;
67819;SDS011;54618;52.018;5.576;2024-02-21T00:56:52;9.07;;;4.35;;
67819;SDS011;54618;52.018;5.576;2024-02-21T00:59:18;12.23;;;4.60;;
67819;SDS011;54618;52.018;5.576;2024-02-21T01:01:43;14.23;;;4.00;;
67819;SDS011;54618;52.018;5.576;2024-02-21T01:04:09;7.75;;;3.88;;
67819;SDS011;54618;52.018;5.576;2024-02-21T01:06:35;11.65;;;3.85;;
67819;SDS011;54618;52.018;5.576;2024-02-21T01:09:00;10.32;;;3.88;;
67819;SDS011;54618;52.018;5.576;2024-02-21T01:11:26;9.90;;;4.47;;
67819;SDS011;54618;52.018;5.576;2024-02-21T01:13:52;9.15;;;3.72;;
67819;SDS011;54618;52.018;5.576;2024-02-21T01:16:18;8.93;;;3.38;;
67819;SDS011;54618;52.018;5.576;2024-02-21T01:18:44;10.00;;;3.50;;
67819;SDS011;54618;52.018;5.576;2024-02-21T01:21:09;11.45;;;3.75;;
67819;SDS011;54618;52.018;5.576;2024-02-21T01:23:36;11.10;;;4.25;;
67819;SDS011;54618;52.018;5.576;2024-02-21T01:26:02;10.10;;;3.47;;
67819;SDS011;54618;52.018;5.576;2024-02-21T01:28:31;11.10;;;3.45;;
67819;SDS011;54618;52.018;5.576;2024-02-21T01:31:00;9.60;;;3.22;;
67819;SDS011;54618;52.018;5.576;2024-02-21T01:33:26;13.10;;;3.58;;
67819;SDS011;54618;52.018;5.576;2024-02-21T01:35:52;8.38;;;3.20;;
67819;SDS011;54618;52.018;5.576;2024-02-21T01:38:17;10.98;;;3.30;;
67819;SDS011;54618;52.018;5.576;2024-02-21T01:40:43;7.70;;;3.38;;
67819;SDS011;54618;52.018;5.576;2024-02-21T01:43:16;9.90;;;3.33;;
67819;SDS011;54618;52.018;5.576;2024-02-21T01:45:43;10.82;;;3.50;;
67819;SDS011;54618;52.018;5.576;2024-02-21T01:48:11;10.23;;;3.47;;
67819;SDS011;54618;52.018;5.576;2024-02-21T01:50:38;9.48;;;3.45;;
67819;SDS011;54618;52.018;5.576;2024-02-21T01:53:03;7.93;;;3.30;;
67819;SDS011;54618;52.018;5.576;2024-02-21T01:55:30;13.15;;;4.07;;
67819;SDS011;54618;52.018;5.576;2024-02-21T01:57:56;10.20;;;3.72;;
67819;SDS011;54618;52.018;5.576;2024-02-21T02:00:21;12.77;;;3.58;;
67819;SDS011;54618;52.018;5.576;2024-02-21T02:02:48;10.88;;;4.50;;
67819;SDS011;54618;52.018;5.576;2024-02-21T02:05:14;14.68;;;4.90;;
67819;SDS011;54618;52.018;5.576;2024-02-21T02:07:42;13.77;;;3.72;;
67819;SDS011;54618;52.018;5.576;2024-02-21T02:10:07;14.55;;;4.38;;
67819;SDS011;54618;52.018;5.576;2024-02-21T02:12:35;16.27;;;4.25;;
67819;SDS011;54618;52.018;5.576;2024-02-21T02:15:01;12.82;;;3.75;;
67819;SDS011;54618;52.018;5.576;2024-02-21T02:17:31;10.23;;;4.03;;
67819;SDS011;54618;52.018;5.576;2024-02-21T02:19:56;10.45;;;3.42;;
67819;SDS011;54618;52.018;5.576;2024-02-21T02:22:25;11.98;;;3.67;;
67819;SDS011;54618;52.018;5.576;2024-02-21T02:24:58;11.38;;;4.15;;
67819;SDS011;54618;52.018;5.576;2024-02-21T02:27:24;13.45;;;3.92;;
67819;SDS011;54618;52.018;5.576;2024-02-21T02:29:50;9.90;;;3.97;;
67819;SDS011;54618;52.018;5.576;2024-02-21T02:32:16;13.82;;;3.72;;
67819;SDS011;54618;52.018;5.576;2024-02-21T02:34:42;11.40;;;3.90;;
67819;SDS011;54618;52.018;5.576;2024-02-21T02:37:07;8.55;;;3.30;;
67819;SDS011;54618;52.018;5.576;2024-02-21T02:39:33;10.23;;;4.20;;
67819;SDS011;54618;52.018;5.576;2024-02-21T02:41:59;14.90;;;3.75;;
67819;SDS011;54618;52.018;5.576;2024-02-21T02:44:25;12.73;;;3.92;;
67819;SDS011;54618;52.018;5.576;2024-02-21T02:46:50;12.23;;;3.42;;
67819;SDS011;54618;52.018;5.576;2024-02-21T02:49:16;10.38;;;3.38;;
67819;SDS011;54618;52.018;5.576;2024-02-21T02:51:42;11.02;;;3.60;;
67819;SDS011;54618;52.018;5.576;2024-02-21T02:54:08;13.57;;;4.10;;
67819;SDS011;54618;52.018;5.576;2024-02-21T02:56:34;12.20;;;3.65;;
67819;SDS011;54618;52.018;5.576;2024-02-21T02:59:00;8.60;;;3.78;;
67819;SDS011;54618;52.018;5.576;2024-02-21T03:01:25;7.93;;;3.35;;
67819;SDS011;54618;52.018;5.576;2024-02-21T03:03:52;11.05;;;4.25;;
67819;SDS011;54618;52.018;5.576;2024-02-21T03:06:18;13.82;;;4.97;;
67819;SDS011;54618;52.018;5.576;2024-02-21T03:08:43;13.40;;;4.30;;
67819;SDS011;54618;52.018;5.576;2024-02-21T03:11:09;10.30;;;3.70;;
67819;SDS011;54618;52.018;5.576;2024-02-21T03:13:35;15.57;;;4.68;;
67819;SDS011;54618;52.018;5.576;2024-02-21T03:16:01;12.98;;;4.05;;
67819;SDS011;54618;52.018;5.576;2024-02-21T03:18:28;17.75;;;5.43;;
67819;SDS011;54618;52.018;5.576;2024-02-21T03:20:56;13.88;;;4.35;;
67819;SDS011;54618;52.018;5.576;2024-02-21T03:23:22;14.93;;;4.18;;
67819;SDS011;54618;52.018;5.576;2024-02-21T03:25:48;15.73;;;4.70;;
67819;SDS011;54618;52.018;5.576;2024-02-21T03:28:13;11.05;;;4.50;;
67819;SDS011;54618;52.018;5.576;2024-02-21T03:30:41;12.60;;;4.00;;
67819;SDS011;54618;52.018;5.576;2024-02-21T03:33:06;16.48;;;4.50;;
67819;SDS011;54618;52.018;5.576;2024-02-21T03:35:32;14.93;;;4.15;;
67819;SDS011;54618;52.018;5.576;2024-02-21T03:38:01;12.07;;;4.68;;
67819;SDS011;54618;52.018;5.576;2024-02-21T03:40:26;11.10;;;4.13;;
67819;SDS011;54618;52.018;5.576;2024-02-21T03:42:52;16.15;;;4.50;;
67819;SDS011;54618;52.018;5.576;2024-02-21T03:45:17;14.23;;;4.38;;
67819;SDS011;54618;52.018;5.576;2024-02-21T03:47:43;13.23;;;4.57;;
67819;SDS011;54618;52.018;5.576;2024-02-21T03:50:09;10.35;;;4.20;;
67819;SDS011;54618;52.018;5.576;2024-02-21T03:52:34;10.27;;;3.83;;
67819;SDS011;54618;52.018;5.576;2024-02-21T03:55:00;13.85;;;4.60;;
67819;SDS011;54618;52.018;5.576;2024-02-21T03:57:26;13.77;;;4.63;;
67819;SDS011;54618;52.018;5.576;2024-02-21T03:59:51;12.00;;;4.78;;
67819;SDS011;54618;52.018;5.576;2024-02-21T04:02:17;18.20;;;4.85;;
67819;SDS011;54618;52.018;5.576;2024-02-21T04:04:43;15.95;;;4.68;;
67819;SDS011;54618;52.018;5.576;2024-02-21T04:07:13;11.60;;;4.18;;
67819;SDS011;54618;52.018;5.576;2024-02-21T04:09:39;16.67;;;5.25;;
67819;SDS011;54618;52.018;5.576;2024-02-21T04:12:05;10.65;;;4.70;;
67819;SDS011;54618;52.018;5.576;2024-02-21T04:14:34;14.07;;;3.97;;
67819;SDS011;54618;52.018;5.576;2024-02-21T04:17:00;14.07;;;4.43;;
67819;SDS011;54618;52.018;5.576;2024-02-21T04:19:25;16.20;;;5.13;;
67819;SDS011;54618;52.018;5.576;2024-02-21T04:21:51;12.02;;;4.10;;
67819;SDS011;54618;52.018;5.576;2024-02-21T04:24:17;9.10;;;4.00;;
67819;SDS011;54618;52.018;5.576;2024-02-21T04:26:42;12.23;;;4.35;;
67819;SDS011;54618;52.018;5.576;2024-02-21T04:29:08;11.82;;;4.20;;
67819;SDS011;54618;52.018;5.576;2024-02-21T04:31:34;12.40;;;4.28;;
67819;SDS011;54618;52.018;5.576;2024-02-21T04:34:00;9.70;;;3.72;;
67819;SDS011;54618;52.018;5.576;2024-02-21T04:36:25;10.88;;;4.00;;
67819;SDS011;54618;52.018;5.576;2024-02-21T04:38:51;10.65;;;3.97;;
67819;SDS011;54618;52.018;5.576;2024-02-21T04:41:17;9.82;;;4.00;;
67819;SDS011;54618;52.018;5.576;2024-02-21T04:43:42;10.27;;;3.55;;
67819;SDS011;54618;52.018;5.576;2024-02-21T04:46:08;11.43;;;4.28;;
67819;SDS011;54618;52.018;5.576;2024-02-21T04:48:34;15.02;;;4.70;;
67819;SDS011;54618;52.018;5.576;2024-02-21T04:51:00;13.30;;;4.72;;
67819;SDS011;54618;52.018;5.576;2024-02-21T04:53:26;13.27;;;4.90;;
67819;SDS011;54618;52.018;5.576;2024-02-21T04:55:51;9.40;;;4.10;;
67819;SDS011;54618;52.018;5.576;2024-02-21T04:58:17;12.93;;;4.80;;
67819;SDS011;54618;52.018;5.576;2024-02-21T05:00:42;11.98;;;4.72;;
67819;SDS011;54618;52.018;5.576;2024-02-21T05:03:08;13.55;;;4.75;;
67819;SDS011;54618;52.018;5.576;2024-02-21T05:05:34;11.57;;;4.68;;
67819;SDS011;54618;52.018;5.576;2024-02-21T05:08:00;12.68;;;4.47;;
67819;SDS011;54618;52.018;5.576;2024-02-21T05:10:26;13.43;;;5.13;;
67819;SDS011;54618;52.018;5.576;2024-02-21T05:12:52;13.65;;;4.78;;
67819;SDS011;54618;52.018;5.576;2024-02-21T05:15:17;13.18;;;4.60;;
67819;SDS011;54618;52.018;5.576;2024-02-21T05:17:43;11.23;;;4.45;;
67819;SDS011;54618;52.018;5.576;2024-02-21T05:20:09;9.50;;;4.70;;
67819;SDS011;54618;52.018;5.576;2024-02-21T05:22:35;14.02;;;5.43;;
67819;SDS011;54618;52.018;5.576;2024-02-21T05:25:01;10.52;;;4.80;;
67819;SDS011;54618;52.018;5.576;2024-02-21T05:27:26;15.00;;;4.85;;
67819;SDS011;54618;52.018;5.576;2024-02-21T05:29:53;15.63;;;6.00;;
67819;SDS011;54618;52.018;5.576;2024-02-21T05:32:19;9.43;;;4.50;;
67819;SDS011;54618;52.018;5.576;2024-02-21T05:34:44;13.35;;;5.05;;
67819;SDS011;54618;52.018;5.576;2024-02-21T05:37:14;12.02;;;4.20;;
67819;SDS011;54618;52.018;5.576;2024-02-21T05:39:40;13.40;;;4.97;;
67819;SDS011;54618;52.018;5.576;2024-02-21T05:42:06;13.05;;;5.53;;
67819;SDS011;54618;52.018;5.576;2024-02-21T05:44:31;10.55;;;4.93;;
67819;SDS011;54618;52.018;5.576;2024-02-21T05:47:00;10.25;;;4.93;;
67819;SDS011;54618;52.018;5.576;2024-02-21T05:49:26;15.07;;;5.18;;
67819;SDS011;54618;52.018;5.576;2024-02-21T05:51:51;16.00;;;5.40;;
67819;SDS011;54618;52.018;5.576;2024-02-21T05:54:17;14.23;;;5.60;;
67819;SDS011;54618;52.018;5.576;2024-02-21T05:56:46;12.77;;;5.82;;
67819;SDS011;54618;52.018;5.576;2024-02-21T05:59:12;14.52;;;5.72;;
67819;SDS011;54618;52.018;5.576;2024-02-21T06:01:37;14.20;;;5.97;;
67819;SDS011;54618;52.018;5.576;2024-02-21T06:04:03;13.80;;;6.32;;
67819;SDS011;54618;52.018;5.576;2024-02-21T06:06:32;13.35;;;5.97;;
67819;SDS011;54618;52.018;5.576;2024-02-21T06:09:01;18.13;;;6.72;;
67819;SDS011;54618;52.018;5.576;2024-02-21T06:11:30;16.48;;;6.78;;
67819;SDS011;54618;52.018;5.576;2024-02-21T06:13:56;15.35;;;6.28;;
67819;SDS011;54618;52.018;5.576;2024-02-21T06:16:22;16.48;;;6.88;;
67819;SDS011;54618;52.018;5.576;2024-02-21T06:18:47;23.45;;;7.68;;
67819;SDS011;54618;52.018;5.576;2024-02-21T06:21:13;19.80;;;7.55;;
67819;SDS011;54618;52.018;5.576;2024-02-21T06:23:38;22.75;;;7.95;;
67819;SDS011;54618;52.018;5.576;2024-02-21T06:26:04;18.75;;;6.72;;
67819;SDS011;54618;52.018;5.576;2024-02-21T06:28:30;14.32;;;7.22;;
67819;SDS011;54618;52.018;5.576;2024-02-21T06:30:55;17.77;;;6.57;;
67819;SDS011;54618;52.018;5.576;2024-02-21T06:33:21;18.17;;;6.88;;
67819;SDS011;54618;52.018;5.576;2024-02-21T06:35:50;17.35;;;7.07;;
67819;SDS011;54618;52.018;5.576;2024-02-21T06:38:18;17.55;;;7.40;;
67819;SDS011;54618;52.018;5.576;2024-02-21T06:40:44;21.10;;;7.13;;
67819;SDS011;54618;52.018;5.576;2024-02-21T06:43:14;18.53;;;6.73;;
67819;SDS011;54618;52.018;5.576;2024-02-21T06:45:41;17.23;;;6.50;;
67819;SDS011;54618;52.018;5.576;2024-02-21T06:48:07;16.40;;;6.97;;
67819;SDS011;54618;52.018;5.576;2024-02-21T06:50:33;13.82;;;6.55;;
67819;SDS011;54618;52.018;5.576;2024-02-21T06:52:58;16.77;;;7.50;;
67819;SDS011;54618;52.018;5.576;2024-02-21T06:55:24;15.32;;;6.65;;
67819;SDS011;54618;52.018;5.576;2024-02-21T06:57:49;14.43;;;6.75;;
67819;SDS011;54618;52.018;5.576;2024-02-21T07:00:15;18.08;;;6.20;;
67819;SDS011;54618;52.018;5.576;2024-02-21T07:02:41;15.35;;;6.22;;
67819;SDS011;54618;52.018;5.576;2024-02-21T07:05:07;14.70;;;6.45;;
67819;SDS011;54618;52.018;5.576;2024-02-21T07:07:33;14.48;;;5.93;;
67819;SDS011;54618;52.018;5.576;2024-02-21T07:10:00;15.32;;;6.45;;
67819;SDS011;54618;52.018;5.576;2024-02-21T07:12:26;19.92;;;5.95;;
67819;SDS011;54618;52.018;5.576;2024-02-21T07:14:51;12.25;;;5.68;;
67819;SDS011;54618;52.018;5.576;2024-02-21T07:17:17;15.48;;;5.45;;
67819;SDS011;54618;52.018;5.576;2024-02-21T07:19:42;15.93;;;5.72;;
67819;SDS011;54618;52.018;5.576;2024-02-21T07:22:08;18.17;;;5.97;;
67819;SDS011;54618;52.018;5.576;2024-02-21T07:24:34;19.85;;;6.10;;
67819;SDS011;54618;52.018;5.576;2024-02-21T07:26:59;15.73;;;5.90;;
67819;SDS011;54618;52.018;5.576;2024-02-21T07:29:29;14.35;;;5.60;;
67819;SDS011;54618;52.018;5.576;2024-02-21T07:31:55;18.65;;;5.60;;
67819;SDS011;54618;52.018;5.576;2024-02-21T07:34:21;14.48;;;5.80;;
67819;SDS011;54618;52.018;5.576;2024-02-21T07:36:47;14.85;;;5.43;;
67819;SDS011;54618;52.018;5.576;2024-02-21T07:39:12;13.20;;;5.07;;
67819;SDS011;54618;52.018;5.576;2024-02-21T07:41:38;15.73;;;5.68;;
67819;SDS011;54618;52.018;5.576;2024-02-21T07:44:05;12.88;;;5.60;;
67819;SDS011;54618;52.018;5.576;2024-02-21T07:46:30;17.52;;;5.38;;
67819;SDS011;54618;52.018;5.576;2024-02-21T07:48:56;16.05;;;5.78;;
67819;SDS011;54618;52.018;5.576;2024-02-21T07:51:22;14.98;;;5.43;;
67819;SDS011;54618;52.018;5.576;2024-02-21T07:53:47;16.17;;;5.97;;
67819;SDS011;54618;52.018;5.576;2024-02-21T07:56:13;12.13;;;5.65;;
67819;SDS011;54618;52.018;5.576;2024-02-21T07:58:40;15.38;;;5.68;;
67819;SDS011;54618;52.018;5.576;2024-02-21T08:01:07;14.40;;;5.15;;
67819;SDS011;54618;52.018;5.576;2024-02-21T08:03:33;21.02;;;5.78;;
67819;SDS011;54618;52.018;5.576;2024-02-21T08:05:59;12.45;;;4.80;;
67819;SDS011;54618;52.018;5.576;2024-02-21T08:08:25;13.93;;;4.90;;
67819;SDS011;54618;52.018;5.576;2024-02-21T08:10:51;16.27;;;5.70;;
67819;SDS011;54618;52.018;5.576;2024-02-21T08:13:17;13.55;;;5.13;;
67819;SDS011;54618;52.018;5.576;2024-02-21T08:15:43;13.95;;;5.28;;
67819;SDS011;54618;52.018;5.576;2024-02-21T08:18:08;13.18;;;5.20;;
67819;SDS011;54618;52.018;5.576;2024-02-21T08:20:34;12.95;;;5.38;;
67819;SDS011;54618;52.018;5.576;2024-02-21T08:23:00;14.23;;;5.10;;
67819;SDS011;54618;52.018;5.576;2024-02-21T08:25:26;15.88;;;5.53;;
67819;SDS011;54618;52.018;5.576;2024-02-21T08:27:57;15.48;;;5.40;;
67819;SDS011;54618;52.018;5.576;2024-02-21T08:30:24;13.85;;;5.50;;
67819;SDS011;54618;52.018;5.576;2024-02-21T08:32:50;13.75;;;5.32;;
67819;SDS011;54618;52.018;5.576;2024-02-21T08:35:15;13.35;;;5.18;;
67819;SDS011;54618;52.018;5.576;2024-02-21T08:37:43;11.90;;;5.03;;
67819;SDS011;54618;52.018;5.576;2024-02-21T08:40:09;11.88;;;4.85;;
67819;SDS011;54618;52.018;5.576;2024-02-21T08:42:35;12.95;;;5.38;;
67819;SDS011;54618;52.018;5.576;2024-02-21T08:45:02;11.68;;;4.97;;
67819;SDS011;54618;52.018;5.576;2024-02-21T08:47:31;11.65;;;5.78;;
67819;SDS011;54618;52.018;5.576;2024-02-21T08:49:57;12.13;;;5.45;;
67819;SDS011;54618;52.018;5.576;2024-02-21T08:52:22;12.77;;;5.03;;
67819;SDS011;54618;52.018;5.576;2024-02-21T08:54:48;14.35;;;5.22;;
67819;SDS011;54618;52.018;5.576;2024-02-21T08:57:13;13.40;;;4.65;;
67819;SDS011;54618;52.018;5.576;2024-02-21T08:59:39;13.98;;;5.68;;
67819;SDS011;54618;52.018;5.576;2024-02-21T09:02:05;10.90;;;4.80;;
67819;SDS011;54618;52.018;5.576;2024-02-21T09:04:32;14.07;;;5.03;;
67819;SDS011;54618;52.018;5.576;2024-02-21T09:06:58;13.23;;;4.90;;
67819;SDS011;54618;52.018;5.576;2024-02-21T09:09:26;14.52;;;4.80;;
67819;SDS011;54618;52.018;5.576;2024-02-21T09:11:53;9.60;;;4.63;;
67819;SDS011;54618;52.018;5.576;2024-02-21T09:14:19;26.38;;;6.20;;
67819;SDS011;54618;52.018;5.576;2024-02-21T09:16:44;12.88;;;4.72;;
67819;SDS011;54618;52.018;5.576;2024-02-21T09:19:10;17.05;;;4.85;;
67819;SDS011;54618;52.018;5.576;2024-02-21T09:21:39;13.35;;;4.82;;
67819;SDS011;54618;52.018;5.576;2024-02-21T09:24:05;14.43;;;5.00;;
67819;SDS011;54618;52.018;5.576;2024-02-21T09:26:31;14.38;;;4.53;;
67819;SDS011;54618;52.018;5.576;2024-02-21T09:28:57;10.68;;;4.97;;
67819;SDS011;54618;52.018;5.576;2024-02-21T09:31:23;12.15;;;4.80;;
67819;SDS011;54618;52.018;5.576;2024-02-21T09:33:48;13.23;;;4.70;;
67819;SDS011;54618;52.018;5.576;2024-02-21T09:36:14;11.15;;;4.45;;
67819;SDS011;54618;52.018;5.576;2024-02-21T09:38:40;12.20;;;4.72;;
67819;SDS011;54618;52.018;5.576;2024-02-21T09:43:49;13.68;;;4.65;;
67819;SDS011;54618;52.018;5.576;2024-02-21T09:46:19;12.52;;;4.70;;
67819;SDS011;54618;52.018;5.576;2024-02-21T09:49:09;13.90;;;4.90;;
67819;SDS011;54618;52.018;5.576;2024-02-21T09:51:39;12.65;;;4.47;;
67819;SDS011;54618;52.018;5.576;2024-02-21T09:54:07;12.27;;;4.63;;
67819;SDS011;54618;52.018;5.576;2024-02-21T09:56:33;10.57;;;4.20;;
67819;SDS011;54618;52.018;5.576;2024-02-21T09:58:58;8.32;;;4.13;;
67819;SDS011;54618;52.018;5.576;2024-02-21T10:01:28;10.73;;;4.65;;
67819;SDS011;54618;52.018;5.576;2024-02-21T10:03:54;11.60;;;4.25;;
67819;SDS011;54618;52.018;5.576;2024-02-21T10:06:19;10.43;;;4.05;;
67819;SDS011;54618;52.018;5.576;2024-02-21T10:08:51;8.93;;;4.03;;
67819;SDS011;54618;52.018;5.576;2024-02-21T10:11:24;9.07;;;4.03;;
67819;SDS011;54618;52.018;5.576;2024-02-21T10:13:50;10.25;;;3.97;;
67819;SDS011;54618;52.018;5.576;2024-02-21T10:16:27;12.93;;;4.60;;
67819;SDS011;54618;52.018;5.576;2024-02-21T10:18:54;9.77;;;4.20;;
67819;SDS011;54618;52.018;5.576;2024-02-21T10:21:19;11.18;;;3.60;;
67819;SDS011;54618;52.018;5.576;2024-02-21T10:23:49;7.43;;;3.83;;
67819;SDS011;54618;52.018;5.576;2024-02-21T10:26:16;9.23;;;4.03;;
67819;SDS011;54618;52.018;5.576;2024-02-21T10:28:43;7.45;;;3.60;;
67819;SDS011;54618;52.018;5.576;2024-02-21T10:31:20;7.88;;;3.60;;
67819;SDS011;54618;52.018;5.576;2024-02-21T10:33:55;8.43;;;3.53;;
67819;SDS011;54618;52.018;5.576;2024-02-21T10:36:29;5.97;;;3.22;;
67819;SDS011;54618;52.018;5.576;2024-02-21T10:38:55;4.65;;;2.80;;
67819;SDS011;54618;52.018;5.576;2024-02-21T10:41:24;6.70;;;3.30;;
67819;SDS011;54618;52.018;5.576;2024-02-21T10:43:53;6.70;;;2.90;;
67819;SDS011;54618;52.018;5.576;2024-02-21T10:46:21;6.53;;;3.03;;
67819;SDS011;54618;52.018;5.576;2024-02-21T10:48:53;7.28;;;3.30;;
67819;SDS011;54618;52.018;5.576;2024-02-21T10:51:28;5.75;;;2.85;;
67819;SDS011;54618;52.018;5.576;2024-02-21T10:54:02;6.07;;;2.90;;
67819;SDS011;54618;52.018;5.576;2024-02-21T10:56:44;8.02;;;3.22;;
67819;SDS011;54618;52.018;5.576;2024-02-21T10:59:11;5.03;;;3.08;;
67819;SDS011;54618;52.018;5.576;2024-02-21T11:01:39;9.27;;;3.50;;
67819;SDS011;54618;52.018;5.576;2024-02-21T11:04:05;7.97;;;3.75;;
67819;SDS011;54618;52.018;5.576;2024-02-21T11:06:35;8.27;;;3.60;;
67819;SDS011;54618;52.018;5.576;2024-02-21T11:11:35;6.70;;;3.35;;
67819;SDS011;54618;52.018;5.576;2024-02-21T11:16:44;7.93;;;3.80;;
67819;SDS011;54618;52.018;5.576;2024-02-21T11:19:18;11.98;;;4.40;;
67819;SDS011;54618;52.018;5.576;2024-02-21T11:21:51;7.15;;;4.22;;
67819;SDS011;54618;52.018;5.576;2024-02-21T11:27:15;10.35;;;4.47;;
67819;SDS011;54618;52.018;5.576;2024-02-21T11:29:45;10.15;;;4.65;;
67819;SDS011;54618;52.018;5.576;2024-02-21T11:32:15;8.55;;;4.40;;
67819;SDS011;54618;52.018;5.576;2024-02-21T11:35:04;10.27;;;4.78;;
67819;SDS011;54618;52.018;5.576;2024-02-21T11:37:30;8.90;;;4.70;;
67819;SDS011;54618;52.018;5.576;2024-02-21T11:40:04;11.55;;;5.47;;
67819;SDS011;54618;52.018;5.576;2024-02-21T11:42:34;11.82;;;4.80;;
67819;SDS011;54618;52.018;5.576;2024-02-21T11:45:00;11.48;;;4.93;;
67819;SDS011;54618;52.018;5.576;2024-02-21T11:47:30;9.95;;;4.38;;
67819;SDS011;54618;52.018;5.576;2024-02-21T11:49:55;11.43;;;4.88;;
67819;SDS011;54618;52.018;5.576;2024-02-21T11:52:21;11.02;;;4.97;;
67819;SDS011;54618;52.018;5.576;2024-02-21T11:54:50;9.10;;;4.32;;
67819;SDS011;54618;52.018;5.576;2024-02-21T11:57:17;12.52;;;4.88;;
67819;SDS011;54618;52.018;5.576;2024-02-21T11:59:44;9.48;;;4.60;;
67819;SDS011;54618;52.018;5.576;2024-02-21T12:02:10;10.45;;;4.93;;
67819;SDS011;54618;52.018;5.576;2024-02-21T12:04:37;8.68;;;3.75;;
67819;SDS011;54618;52.018;5.576;2024-02-21T12:07:03;9.55;;;4.55;;
67819;SDS011;54618;52.018;5.576;2024-02-21T12:09:30;7.72;;;4.03;;
67819;SDS011;54618;52.018;5.576;2024-02-21T12:11:59;8.55;;;4.05;;
67819;SDS011;54618;52.018;5.576;2024-02-21T12:14:30;7.78;;;3.58;;
67819;SDS011;54618;52.018;5.576;2024-02-21T12:17:00;11.73;;;4.18;;
67819;SDS011;54618;52.018;5.576;2024-02-21T12:19:28;7.28;;;3.78;;
67819;SDS011;54618;52.018;5.576;2024-02-21T12:21:54;7.20;;;3.78;;
67819;SDS011;54618;52.018;5.576;2024-02-21T12:24:22;10.40;;;3.40;;
67819;SDS011;54618;52.018;5.576;2024-02-21T12:26:48;8.68;;;3.78;;
67819;SDS011;54618;52.018;5.576;2024-02-21T12:29:21;7.60;;;3.53;;
67819;SDS011;54618;52.018;5.576;2024-02-21T12:31:47;6.53;;;3.53;;
67819;SDS011;54618;52.018;5.576;2024-02-21T12:34:14;9.00;;;4.00;;
67819;SDS011;54618;52.018;5.576;2024-02-21T12:36:41;8.20;;;3.25;;
67819;SDS011;54618;52.018;5.576;2024-02-21T12:39:08;8.93;;;3.65;;
67819;SDS011;54618;52.018;5.576;2024-02-21T12:41:35;9.25;;;3.25;;
67819;SDS011;54618;52.018;5.576;2024-02-21T12:44:03;8.95;;;3.40;;
67819;SDS011;54618;52.018;5.576;2024-02-21T12:46:35;9.80;;;4.00;;
67819;SDS011;54618;52.018;5.576;2024-02-21T12:49:01;7.07;;;3.45;;
67819;SDS011;54618;52.018;5.576;2024-02-21T12:51:36;6.35;;;2.95;;
67819;SDS011;54618;52.018;5.576;2024-02-21T12:54:06;6.80;;;3.15;;
67819;SDS011;54618;52.018;5.576;2024-02-21T12:56:31;8.93;;;3.50;;
67819;SDS011;54618;52.018;5.576;2024-02-21T12:59:00;7.50;;;3.13;;
67819;SDS011;54618;52.018;5.576;2024-02-21T13:01:25;8.85;;;3.70;;
67819;SDS011;54618;52.018;5.576;2024-02-21T13:03:51;6.88;;;3.28;;
67819;SDS011;54618;52.018;5.576;2024-02-21T13:06:17;7.75;;;3.13;;
67819;SDS011;54618;52.018;5.576;2024-02-21T13:08:44;6.97;;;3.28;;
67819;SDS011;54618;52.018;5.576;2024-02-21T13:11:10;9.93;;;3.20;;
67819;SDS011;54618;52.018;5.576;2024-02-21T13:13:37;7.97;;;2.83;;
67819;SDS011;54618;52.018;5.576;2024-02-21T13:16:06;8.93;;;3.17;;
67819;SDS011;54618;52.018;5.576;2024-02-21T13:18:32;8.77;;;3.30;;
67819;SDS011;54618;52.018;5.576;2024-02-21T13:21:05;8.18;;;3.00;;
67819;SDS011;54618;52.018;5.576;2024-02-21T13:23:31;8.60;;;3.00;;
67819;SDS011;54618;52.018;5.576;2024-02-21T13:25:57;8.43;;;2.85;;
67819;SDS011;54618;52.018;5.576;2024-02-21T13:28:23;7.05;;;3.20;;
67819;SDS011;54618;52.018;5.576;2024-02-21T13:30:48;6.28;;;2.80;;
67819;SDS011;54618;52.018;5.576;2024-02-21T13:33:14;12.90;;;2.97;;
67819;SDS011;54618;52.018;5.576;2024-02-21T13:35:40;6.82;;;2.97;;
67819;SDS011;54618;52.018;5.576;2024-02-21T13:38:05;8.63;;;3.30;;
67819;SDS011;54618;52.018;5.576;2024-02-21T13:40:31;11.23;;;3.55;;
67819;SDS011;54618;52.018;5.576;2024-02-21T13:42:57;6.32;;;2.95;;
67819;SDS011;54618;52.018;5.576;2024-02-21T13:45:23;7.57;;;3.10;;
67819;SDS011;54618;52.018;5.576;2024-02-21T13:47:48;9.35;;;3.10;;
67819;SDS011;54618;52.018;5.576;2024-02-21T13:50:14;9.40;;;3.10;;
67819;SDS011;54618;52.018;5.576;2024-02-21T13:52:40;8.95;;;2.75;;
67819;SDS011;54618;52.018;5.576;2024-02-21T13:55:06;7.93;;;2.92;;
67819;SDS011;54618;52.018;5.576;2024-02-21T13:57:33;7.68;;;2.80;;
67819;SDS011;54618;52.018;5.576;2024-02-21T14:00:03;9.45;;;2.95;;
67819;SDS011;54618;52.018;5.576;2024-02-21T14:02:35;9.18;;;3.15;;
67819;SDS011;54618;52.018;5.576;2024-02-21T14:05:02;9.57;;;2.80;;
67819;SDS011;54618;52.018;5.576;2024-02-21T14:07:30;9.43;;;2.78;;
67819;SDS011;54618;52.018;5.576;2024-02-21T14:09:58;9.10;;;3.25;;
67819;SDS011;54618;52.018;5.576;2024-02-21T14:12:24;9.77;;;2.85;;
67819;SDS011;54618;52.018;5.576;2024-02-21T14:14:49;7.75;;;2.85;;
67819;SDS011;54618;52.018;5.576;2024-02-21T14:17:15;7.28;;;2.92;;
67819;SDS011;54618;52.018;5.576;2024-02-21T14:19:41;6.43;;;2.78;;
67819;SDS011;54618;52.018;5.576;2024-02-21T14:22:06;12.55;;;2.47;;
67819;SDS011;54618;52.018;5.576;2024-02-21T14:24:32;6.15;;;2.80;;
67819;SDS011;54618;52.018;5.576;2024-02-21T14:26:58;6.60;;;2.42;;
67819;SDS011;54618;52.018;5.576;2024-02-21T14:29:24;8.68;;;2.80;;
67819;SDS011;54618;52.018;5.576;2024-02-21T14:31:50;7.38;;;2.42;;
67819;SDS011;54618;52.018;5.576;2024-02-21T14:34:18;7.07;;;2.30;;
67819;SDS011;54618;52.018;5.576;2024-02-21T14:36:44;6.57;;;2.03;;
67819;SDS011;54618;52.018;5.576;2024-02-21T14:39:10;8.10;;;2.42;;
67819;SDS011;54618;52.018;5.576;2024-02-21T14:41:38;10.68;;;2.83;;
67819;SDS011;54618;52.018;5.576;2024-02-21T14:44:04;8.65;;;2.47;;
67819;SDS011;54618;52.018;5.576;2024-02-21T14:46:30;7.72;;;2.38;;